createdAt,value
2023-02-03T00:00:06.138Z,51.25
2023-02-03T00:01:06.141Z,51.22
2023-02-03T00:02:07.169Z,45.17
2023-02-03T00:03:06.157Z,53.06
2023-02-03T00:04:06.097Z,46.57
2023-02-03T00:05:06.105Z,53.41
2023-02-03T00:06:06.107Z,51.86
2023-02-03T00:07:06.094Z,55.27
2023-02-03T00:08:06.075Z,51.49
2023-02-03T00:09:06.105Z,55.16
2023-02-03T00:10:18.894Z,48.11
2023-02-03T00:11:06.089Z,59.26
2023-02-03T00:12:06.038Z,55.95
2023-02-03T00:13:06.056Z,49.81
2023-02-03T00:14:06.076Z,53.01
2023-02-03T00:15:06.111Z,47.80
2023-02-03T00:16:06.130Z,52.40
2023-02-03T00:17:06.062Z,47.07
2023-02-03T00:18:07.073Z,59.45
2023-02-03T00:19:06.036Z,55.90
2023-02-03T00:20:06.078Z,55.16
2023-02-03T00:21:06.178Z,57.19
2023-02-03T00:22:05.983Z,48.71
2023-02-03T00:23:05.979Z,52.29
2023-02-03T00:24:05.949Z,46.05
2023-02-03T00:25:05.963Z,46.47
2023-02-03T00:26:06.567Z,55.02
2023-02-03T00:27:05.974Z,57.95
2023-02-03T00:28:06.089Z,48.46
2023-02-03T00:29:06.017Z,47.45
2023-02-03T00:30:06.005Z,58.15
2023-02-03T00:31:06.001Z,61.58
2023-02-03T00:32:06.022Z,52.39
2023-02-03T00:33:05.937Z,47.83
2023-02-03T00:34:05.955Z,45.64
2023-02-03T00:35:05.923Z,48.53
2023-02-03T00:36:05.883Z,46.83
2023-02-03T00:37:05.890Z,50.78
2023-02-03T00:38:05.878Z,52.83
2023-02-03T00:39:05.863Z,48.94
2023-02-03T00:40:05.951Z,53.59
2023-02-03T00:41:05.892Z,47.19
2023-02-03T00:42:05.861Z,50.26
2023-02-03T00:43:05.879Z,55.76
2023-02-03T00:44:05.823Z,44.43
2023-02-03T00:45:05.876Z,44.84
2023-02-03T00:46:05.897Z,50.78
2023-02-03T00:47:05.844Z,57.28
2023-02-03T00:48:05.812Z,54.94
2023-02-03T00:49:05.817Z,46.00
2023-02-03T00:50:05.792Z,44.54
2023-02-03T00:51:05.838Z,52.86
2023-02-03T00:52:05.770Z,52.41
2023-02-03T00:53:05.797Z,48.94
2023-02-03T00:54:05.746Z,55.01
2023-02-03T00:55:05.816Z,54.38
2023-02-03T00:56:05.852Z,53.34
2023-02-03T00:57:06.396Z,58.00
2023-02-03T00:58:05.748Z,53.04
2023-02-03T00:59:05.730Z,58.35
2023-02-03T01:00:05.757Z,51.87
2023-02-03T01:01:05.768Z,50.00
2023-02-03T01:02:05.771Z,45.44
2023-02-03T01:03:05.687Z,49.79
2023-02-03T01:04:05.705Z,48.05
2023-02-03T01:05:05.720Z,53.54
2023-02-03T01:06:05.724Z,56.73
2023-02-03T01:07:05.671Z,45.74
2023-02-03T01:08:05.719Z,46.98
2023-02-03T01:09:05.653Z,64.72
2023-02-03T01:10:05.679Z,44.63
2023-02-03T01:11:05.698Z,52.01
2023-02-03T01:12:05.625Z,60.69
2023-02-03T01:13:05.683Z,54.87
2023-02-03T01:14:05.620Z,54.15
2023-02-03T01:15:05.584Z,45.13
2023-02-03T01:16:05.608Z,52.87
2023-02-03T01:17:05.722Z,46.66
2023-02-03T01:18:05.597Z,52.01
2023-02-03T01:19:05.606Z,52.16
2023-02-03T01:20:05.531Z,51.25
2023-02-03T01:21:05.520Z,44.49
2023-02-03T01:22:05.554Z,50.92
2023-02-03T01:23:05.578Z,46.77
2023-02-03T01:24:05.562Z,48.94
2023-02-03T01:25:05.515Z,46.70
2023-02-03T01:26:05.549Z,47.33
2023-02-03T01:27:05.516Z,45.50
2023-02-03T01:28:05.544Z,45.37
2023-02-03T01:29:05.534Z,44.32
2023-02-03T01:30:05.565Z,44.30
2023-02-03T01:31:05.621Z,48.78
2023-02-03T01:32:05.563Z,44.15
2023-02-03T01:33:05.458Z,50.83
2023-02-03T01:34:05.433Z,60.28
2023-02-03T01:35:05.451Z,46.10
2023-02-03T01:36:05.473Z,52.13
2023-02-03T01:37:05.426Z,50.06
2023-02-03T01:38:05.418Z,58.82
2023-02-03T01:39:05.406Z,60.30
2023-02-03T01:40:05.505Z,51.78
2023-02-03T01:41:05.439Z,50.53
2023-02-03T01:42:05.412Z,51.80
2023-02-03T01:43:05.366Z,61.23
2023-02-03T01:44:05.373Z,61.54
2023-02-03T01:45:05.376Z,47.59
2023-02-03T01:46:05.376Z,51.30
2023-02-03T01:47:05.361Z,48.94
2023-02-03T01:48:05.340Z,50.33
2023-02-03T01:49:05.325Z,45.03
2023-02-03T01:50:05.311Z,53.69
2023-02-03T01:51:05.320Z,51.25
2023-02-03T01:52:05.344Z,46.73
2023-02-03T01:53:05.323Z,56.07
2023-02-03T01:54:37.183Z,52.86
2023-02-03T01:55:05.252Z,60.15
2023-02-03T01:56:05.250Z,52.13
2023-02-03T01:57:05.260Z,49.20
2023-02-03T01:58:05.219Z,50.77
2023-02-03T01:59:05.271Z,45.39
2023-02-03T02:00:05.202Z,43.99
2023-02-03T02:01:05.236Z,43.65
2023-02-03T02:02:05.366Z,49.54
2023-02-03T02:03:05.182Z,50.77
2023-02-03T02:04:05.174Z,51.53
2023-02-03T02:05:05.170Z,53.10
2023-02-03T02:06:05.165Z,49.41
2023-02-03T02:07:05.175Z,59.22
2023-02-03T02:08:05.121Z,44.87
2023-02-03T02:09:05.130Z,50.39
2023-02-03T02:10:05.118Z,48.42
2023-02-03T02:11:05.107Z,50.96
2023-02-03T02:12:05.121Z,55.17
2023-02-03T02:13:05.100Z,52.48
2023-02-03T02:14:05.088Z,57.77
2023-02-03T02:15:05.118Z,51.57
2023-02-03T02:16:05.143Z,50.56
2023-02-03T02:17:05.067Z,49.08
2023-02-03T02:18:05.095Z,52.64
2023-02-03T02:19:05.069Z,45.16
2023-02-03T02:20:05.037Z,47.22
2023-02-03T02:21:05.051Z,50.78
2023-02-03T02:22:05.063Z,48.78
2023-02-03T02:23:05.056Z,46.49
2023-02-03T02:24:05.031Z,46.06
2023-02-03T02:25:05.023Z,52.26
2023-02-03T02:26:05.138Z,44.47
2023-02-03T02:27:05.010Z,43.31
2023-02-03T02:28:05.038Z,45.05
2023-02-03T02:29:04.984Z,52.07
2023-02-03T02:30:05.960Z,43.56
2023-02-03T02:31:05.088Z,44.08
2023-02-03T02:32:04.975Z,47.24
2023-02-03T02:33:04.949Z,60.59
2023-02-03T02:34:04.966Z,54.14
2023-02-03T02:35:04.940Z,46.79
2023-02-03T02:36:04.978Z,50.15
2023-02-03T02:37:04.919Z,44.07
2023-02-03T02:38:04.916Z,50.19
2023-02-03T02:39:04.911Z,48.12
2023-02-03T02:40:04.904Z,43.88
2023-02-03T02:41:04.881Z,44.56
2023-02-03T02:42:04.869Z,50.47
2023-02-03T02:43:04.892Z,43.91
2023-02-03T02:44:05.066Z,44.55
2023-02-03T02:45:04.867Z,44.28
2023-02-03T02:46:04.880Z,44.83
2023-02-03T02:47:04.887Z,45.72
2023-02-03T02:48:04.861Z,56.80
2023-02-03T02:49:04.847Z,59.25
2023-02-03T02:50:04.830Z,47.32
2023-02-03T02:51:04.823Z,46.61
2023-02-03T02:52:04.815Z,44.59
2023-02-03T02:53:05.319Z,44.39
2023-02-03T02:54:04.785Z,44.77
2023-02-03T02:55:04.802Z,61.51
2023-02-03T02:56:04.773Z,55.08
2023-02-03T02:57:37.695Z,56.97
2023-02-03T02:58:04.749Z,45.69
2023-02-03T02:59:04.734Z,51.88
2023-02-03T03:00:36.657Z,45.82
2023-02-03T03:01:04.753Z,48.73
2023-02-03T03:02:04.734Z,45.67
2023-02-03T03:03:37.167Z,54.73
2023-02-03T03:04:38.145Z,46.11
2023-02-03T03:05:04.798Z,46.96
2023-02-03T03:06:04.698Z,51.95
2023-02-03T03:07:04.679Z,55.85
2023-02-03T03:08:37.086Z,47.12
2023-02-03T03:09:04.695Z,60.26
2023-02-03T03:10:04.662Z,51.66
2023-02-03T03:11:04.666Z,45.54
2023-02-03T03:12:04.630Z,52.54
2023-02-03T03:13:04.634Z,49.66
2023-02-03T03:14:04.674Z,46.02
2023-02-03T03:15:04.659Z,47.04
2023-02-03T03:16:04.639Z,48.97
2023-02-03T03:17:04.615Z,52.91
2023-02-03T03:18:04.594Z,51.53
2023-02-03T03:19:04.617Z,46.93
2023-02-03T03:20:04.580Z,48.24
2023-02-03T03:21:04.564Z,47.00
2023-02-03T03:22:04.623Z,52.16
2023-02-03T03:23:04.562Z,52.57
2023-02-03T03:24:04.537Z,49.61
2023-02-03T03:25:05.192Z,52.34
2023-02-03T03:26:04.548Z,60.90
2023-02-03T03:27:04.553Z,52.11
2023-02-03T03:28:04.613Z,50.38
2023-02-03T03:29:04.505Z,55.02
2023-02-03T03:30:04.524Z,50.23
2023-02-03T03:31:04.720Z,48.98
2023-02-03T03:32:04.600Z,50.76
2023-02-03T03:33:04.509Z,47.52
2023-02-03T03:34:04.500Z,53.32
2023-02-03T03:35:04.456Z,59.53
2023-02-03T03:36:04.469Z,49.03
2023-02-03T03:37:04.457Z,47.72
2023-02-03T03:38:04.443Z,51.37
2023-02-03T03:39:04.454Z,51.35
2023-02-03T03:40:04.446Z,57.67
2023-02-03T03:41:04.447Z,45.39
2023-02-03T03:42:04.407Z,52.34
2023-02-03T03:43:04.410Z,53.69
2023-02-03T03:44:04.413Z,56.33
2023-02-03T03:45:04.429Z,56.45
2023-02-03T03:46:04.458Z,51.41
2023-02-03T03:47:04.382Z,50.41
2023-02-03T04:03:56.024Z,56.35
2023-02-03T04:04:48.427Z,53.92
2023-02-03T04:05:48.344Z,56.02
2023-02-03T04:06:49.077Z,58.06
2023-02-03T04:07:48.392Z,61.03
2023-02-03T04:08:49.109Z,56.94
2023-02-03T04:09:48.372Z,62.64
2023-02-03T04:10:50.126Z,63.05
2023-02-03T04:11:50.476Z,51.58
2023-02-03T04:12:52.999Z,57.59
2023-02-03T04:13:50.479Z,60.02
2023-02-03T04:14:52.000Z,59.35
2023-02-03T04:15:50.805Z,46.84
2023-02-03T04:16:52.982Z,58.63
2023-02-03T04:17:50.960Z,49.19
2023-02-03T04:18:51.123Z,60.11
2023-02-03T04:20:22.766Z,60.35
2023-02-03T04:21:21.321Z,48.60
2023-02-03T04:21:49.376Z,73.60
2023-02-03T04:23:22.735Z,60.50
2023-02-03T04:23:49.333Z,66.24
2023-02-03T04:25:21.759Z,58.58
2023-02-03T04:25:49.325Z,63.17
2023-02-03T04:27:21.760Z,61.92
2023-02-03T04:28:21.233Z,65.63
2023-02-03T04:28:49.342Z,64.25
2023-02-03T04:30:21.680Z,55.86
2023-02-03T04:31:21.862Z,56.94
2023-02-03T04:32:21.196Z,63.48
2023-02-03T04:35:47.379Z,69.06
2023-02-03T04:36:48.520Z,60.74
2023-02-03T04:37:48.492Z,65.88
2023-02-03T04:38:48.488Z,65.36
2023-02-03T04:39:48.561Z,62.22
2023-02-03T04:40:48.455Z,62.59
2023-02-03T04:41:48.455Z,66.15
2023-02-03T04:42:48.461Z,68.29
2023-02-03T04:43:48.443Z,60.71
2023-02-03T04:44:48.462Z,63.53
2023-02-03T04:45:48.490Z,64.51
2023-02-03T04:46:48.407Z,63.64
2023-02-03T04:47:48.407Z,66.78
2023-02-03T04:48:48.390Z,67.51
2023-02-03T04:49:48.412Z,64.99
2023-02-03T04:50:48.389Z,67.15
2023-02-03T04:51:48.367Z,61.05
2023-02-03T04:52:48.371Z,64.88
2023-02-03T04:53:48.358Z,49.69
2023-02-03T04:54:48.377Z,68.91
2023-02-03T04:55:48.353Z,63.99
2023-02-03T04:56:48.335Z,63.31
2023-02-03T04:57:49.037Z,60.80
2023-02-03T04:58:48.357Z,62.01
2023-02-03T04:59:48.339Z,62.97
2023-02-03T05:00:48.367Z,52.78
2023-02-03T05:01:48.358Z,66.04
2023-02-03T05:02:48.309Z,54.15
2023-02-03T05:03:48.292Z,56.89
2023-02-03T05:04:48.279Z,60.79
2023-02-03T05:05:49.078Z,66.11
2023-02-03T05:06:48.256Z,62.73
2023-02-03T05:07:48.246Z,65.15
2023-02-03T05:08:48.235Z,67.82
2023-02-03T05:09:48.256Z,58.38
2023-02-03T05:10:48.243Z,63.61
2023-02-03T05:11:48.217Z,64.72
2023-02-03T05:12:48.213Z,64.09
2023-02-03T05:13:48.210Z,61.25
2023-02-03T05:14:48.283Z,70.38
2023-02-03T05:15:48.186Z,62.76
2023-02-03T05:16:48.293Z,53.71
2023-02-03T05:17:48.189Z,66.68
2023-02-03T05:18:48.168Z,66.64
2023-02-03T05:19:48.176Z,68.85
2023-02-03T05:20:48.140Z,71.33
2023-02-03T05:21:48.143Z,70.90
2023-02-03T05:22:48.118Z,63.83
2023-02-03T05:23:48.136Z,53.20
2023-02-03T05:24:48.117Z,68.40
2023-02-03T05:25:48.091Z,61.66
2023-02-03T05:26:48.118Z,65.43
2023-02-03T05:27:48.187Z,65.34
2023-02-03T05:28:48.116Z,66.98
2023-02-03T05:29:48.932Z,68.75
2023-02-03T05:30:48.120Z,55.45
2023-02-03T05:31:48.158Z,64.04
2023-02-03T05:32:48.053Z,69.74
2023-02-03T05:33:48.045Z,64.63
2023-02-03T05:34:48.057Z,61.10
2023-02-03T05:35:48.028Z,66.76
2023-02-03T05:36:48.222Z,64.47
2023-02-03T05:37:48.039Z,66.02
2023-02-03T05:38:48.019Z,73.04
2023-02-03T05:39:48.025Z,67.01
2023-02-03T05:40:48.048Z,68.39
2023-02-03T05:41:47.997Z,67.82
2023-02-03T05:42:48.618Z,68.05
2023-02-03T05:43:48.002Z,64.63
2023-02-03T05:44:48.184Z,72.74
2023-02-03T05:45:48.023Z,67.86
2023-02-03T05:46:47.991Z,63.99
2023-02-03T05:47:48.033Z,68.35
2023-02-03T05:48:48.034Z,70.93
2023-02-03T05:49:47.945Z,72.43
2023-02-03T05:50:47.963Z,64.49
2023-02-03T05:51:47.927Z,69.62
2023-02-03T05:52:47.918Z,68.18
2023-02-03T05:53:49.455Z,70.02
2023-02-03T05:54:48.245Z,67.96
2023-02-03T05:55:47.901Z,66.55
2023-02-03T05:56:47.892Z,64.64
2023-02-03T05:57:47.891Z,71.89
2023-02-03T05:58:47.876Z,67.51
2023-02-03T05:59:47.887Z,70.26
2023-02-03T06:00:47.870Z,66.15
2023-02-03T06:01:47.890Z,59.51
2023-02-03T06:02:47.841Z,68.64
2023-02-03T06:03:48.054Z,69.11
2023-02-03T06:04:47.876Z,68.67
2023-02-03T06:05:47.857Z,65.07
2023-02-03T06:06:47.825Z,61.55
2023-02-03T06:07:47.778Z,69.47
2023-02-03T06:08:47.800Z,63.36
2023-02-03T06:09:47.786Z,72.44
2023-02-03T06:10:47.768Z,72.79
2023-02-03T06:11:47.763Z,67.20
2023-02-03T06:12:47.773Z,71.47
2023-02-03T06:13:47.729Z,66.26
2023-02-03T06:15:20.168Z,70.04
2023-02-03T06:15:47.743Z,68.87
2023-02-03T06:16:47.742Z,66.86
2023-02-03T06:17:47.706Z,67.96
2023-02-03T06:18:47.725Z,62.78
2023-02-03T06:19:47.671Z,66.42
2023-02-03T06:20:47.721Z,73.00
2023-02-03T06:21:47.669Z,69.53
2023-02-03T06:22:47.692Z,73.21
2023-02-03T06:23:47.690Z,72.97
2023-02-03T06:24:47.642Z,72.50
2023-02-03T06:25:47.653Z,71.81
2023-02-03T06:26:47.676Z,71.97
2023-02-03T06:27:47.711Z,68.62
2023-02-03T06:28:47.636Z,71.14
2023-02-03T06:29:47.661Z,73.44
2023-02-03T06:30:47.733Z,71.89
2023-02-03T06:31:47.827Z,70.08
2023-02-03T06:32:47.613Z,72.35
2023-02-03T06:33:47.585Z,71.90
2023-02-03T06:34:47.611Z,71.24
2023-02-03T06:35:47.563Z,69.10
2023-02-03T06:36:47.564Z,72.72
2023-02-03T06:38:19.990Z,68.94
2023-02-03T06:39:19.944Z,71.88
2023-02-03T06:40:19.942Z,71.10
2023-02-03T06:40:47.561Z,70.49
2023-02-03T06:41:47.549Z,73.46
2023-02-03T06:43:20.033Z,68.73
2023-02-03T06:44:19.955Z,72.03
2023-02-03T06:45:19.909Z,73.68
2023-02-03T06:45:47.559Z,72.32
2023-02-03T06:47:20.419Z,71.99
2023-02-03T06:48:19.881Z,62.22
2023-02-03T06:48:47.494Z,71.93
2023-02-03T06:49:47.554Z,72.33
2023-02-03T06:50:48.726Z,73.89
2023-02-03T06:52:19.894Z,71.28
2023-02-03T06:52:47.428Z,74.24
2023-02-03T06:54:19.821Z,68.72
2023-02-03T06:54:47.422Z,72.71
2023-02-03T06:56:19.902Z,71.80
2023-02-03T06:57:19.806Z,68.67
2023-02-03T06:58:19.786Z,68.32
2023-02-03T06:59:19.804Z,68.39
2023-02-03T07:00:19.615Z,69.56
2023-02-03T07:00:47.446Z,67.93
2023-02-03T07:02:19.845Z,69.29
2023-02-03T07:02:47.412Z,72.32
2023-02-03T07:04:19.755Z,67.00
2023-02-03T07:04:47.421Z,66.15
2023-02-03T07:05:47.374Z,69.89
2023-02-03T07:06:47.333Z,66.33
2023-02-03T07:07:47.364Z,69.38
2023-02-03T07:08:47.340Z,69.38
2023-02-03T07:09:47.314Z,69.76
2023-02-03T07:10:47.299Z,68.93
2023-02-03T07:11:47.303Z,71.63
2023-02-03T07:12:47.267Z,72.72
2023-02-03T07:13:47.256Z,66.85
2023-02-03T07:14:47.292Z,67.28
2023-02-03T07:15:47.307Z,68.34
2023-02-03T07:16:47.262Z,66.28
2023-02-03T07:17:47.303Z,59.02
2023-02-03T07:18:48.168Z,68.15
2023-02-03T07:19:48.352Z,70.15
2023-02-03T07:20:47.205Z,66.86
2023-02-03T07:21:47.194Z,69.32
2023-02-03T07:22:48.218Z,63.87
2023-02-03T07:23:47.233Z,71.85
2023-02-03T07:24:47.215Z,63.86
2023-02-03T07:25:47.224Z,66.78
2023-02-03T07:26:47.186Z,63.75
2023-02-03T07:27:47.285Z,65.20
2023-02-03T07:28:47.177Z,69.16
2023-02-03T07:29:47.149Z,68.43
2023-02-03T07:30:47.256Z,69.67
2023-02-03T07:31:47.277Z,67.91
2023-02-03T07:32:47.149Z,71.39
2023-02-03T07:33:47.135Z,66.64
2023-02-03T07:34:47.156Z,67.00
2023-02-03T07:35:47.114Z,67.03
2023-02-03T07:36:47.079Z,72.99
2023-02-03T07:37:47.165Z,62.11
2023-02-03T07:38:47.065Z,69.88
2023-02-03T07:39:47.076Z,68.66
2023-02-03T07:40:47.046Z,62.60
2023-02-03T07:41:47.075Z,66.99
2023-02-03T07:42:47.037Z,68.23
2023-02-03T07:43:47.089Z,68.97
2023-02-03T07:44:47.061Z,69.82
2023-02-03T07:45:47.008Z,69.07
2023-02-03T07:46:47.125Z,66.88
2023-02-03T07:47:46.990Z,69.39
2023-02-03T07:48:46.988Z,69.78
2023-02-03T07:49:47.025Z,64.84
2023-02-03T07:50:46.983Z,64.79
2023-02-03T07:51:46.984Z,65.37
2023-02-03T07:52:47.006Z,69.00
2023-02-03T07:53:47.044Z,65.13
2023-02-03T07:54:46.948Z,64.78
2023-02-03T07:55:46.939Z,68.92
2023-02-03T07:56:46.983Z,68.92
2023-02-03T07:57:46.925Z,56.47
2023-02-03T07:58:46.965Z,68.29
2023-02-03T07:59:46.913Z,70.28
2023-02-03T08:00:46.899Z,68.27
2023-02-03T08:01:46.964Z,61.50
2023-02-03T08:02:47.004Z,61.93
2023-02-03T08:03:46.886Z,68.69
2023-02-03T08:04:46.929Z,66.37
2023-02-03T08:05:46.867Z,69.17
2023-02-03T08:06:46.881Z,64.14
2023-02-03T08:07:46.905Z,71.53
2023-02-03T08:08:46.879Z,68.53
2023-02-03T08:09:46.863Z,69.35
2023-02-03T08:10:46.833Z,65.10
2023-02-03T08:11:46.847Z,64.51
2023-02-03T08:12:46.815Z,63.41
2023-02-03T08:13:46.819Z,67.04
2023-02-03T08:14:46.824Z,73.84
2023-02-03T08:15:46.831Z,70.93
2023-02-03T08:16:46.792Z,68.20
2023-02-03T08:17:46.839Z,71.03
2023-02-03T08:18:46.786Z,65.78
2023-02-03T08:19:46.785Z,64.29
2023-02-03T08:20:46.752Z,70.02
2023-02-03T08:21:46.755Z,65.62
2023-02-03T08:22:46.734Z,67.21
2023-02-03T08:23:46.745Z,62.46
2023-02-03T08:24:46.718Z,65.65
2023-02-03T08:25:46.715Z,69.96
2023-02-03T08:26:46.719Z,70.79
2023-02-03T08:27:46.866Z,62.53
2023-02-03T08:28:46.747Z,67.12
2023-02-03T08:29:46.685Z,67.18
2023-02-03T08:30:46.802Z,69.83
2023-02-03T08:31:46.813Z,63.21
2023-02-03T08:32:46.702Z,67.60
2023-02-03T08:33:46.702Z,72.03
2023-02-03T08:34:46.693Z,67.71
2023-02-03T08:35:46.623Z,67.03
2023-02-03T08:36:46.712Z,53.72
2023-02-03T08:37:46.608Z,69.56
2023-02-03T08:38:46.640Z,69.46
2023-02-03T08:39:46.624Z,69.46
2023-02-03T08:40:46.608Z,68.56
2023-02-03T08:41:46.598Z,66.64
2023-02-03T08:42:46.580Z,67.60
2023-02-03T08:43:46.599Z,72.66
2023-02-03T08:44:46.555Z,70.41
2023-02-03T08:45:47.616Z,62.68
2023-02-03T08:46:46.554Z,71.03
2023-02-03T08:47:46.562Z,69.77
2023-02-03T08:48:46.533Z,72.26
2023-02-03T08:49:46.523Z,65.82
2023-02-03T08:50:46.553Z,62.09
2023-02-03T08:51:46.517Z,66.09
2023-02-03T08:52:46.571Z,68.23
2023-02-03T08:53:46.544Z,68.10
2023-02-03T08:54:46.533Z,61.86
2023-02-03T08:55:46.500Z,71.25
2023-02-03T08:56:46.478Z,69.50
2023-02-03T08:57:46.494Z,68.43
2023-02-03T08:58:46.484Z,71.79
2023-02-03T08:59:46.449Z,72.25
2023-02-03T09:00:46.528Z,67.59
2023-02-03T09:01:46.473Z,71.21
2023-02-03T09:02:46.467Z,71.15
2023-02-03T09:03:46.579Z,70.43
2023-02-03T09:04:46.441Z,67.59
2023-02-03T09:05:46.422Z,71.19
2023-02-03T09:06:46.395Z,70.00
2023-02-03T09:07:46.389Z,67.40
2023-02-03T09:08:46.421Z,71.10
2023-02-03T09:09:46.433Z,67.78
2023-02-03T09:10:46.380Z,72.17
2023-02-03T09:11:46.393Z,68.21
2023-02-03T09:12:46.429Z,70.05
2023-02-03T09:13:46.395Z,69.59
2023-02-03T09:14:46.366Z,67.87
2023-02-03T09:15:46.406Z,73.45
2023-02-03T09:16:46.384Z,71.62
2023-02-03T09:17:46.314Z,71.37
2023-02-03T09:18:46.422Z,69.99
2023-02-03T09:19:46.414Z,69.24
2023-02-03T09:20:46.296Z,67.02
2023-02-03T09:21:48.054Z,74.37
2023-02-03T09:22:46.306Z,67.84
2023-02-03T09:23:46.256Z,65.96
2023-02-03T09:24:46.283Z,70.09
2023-02-03T09:25:48.608Z,71.68
2023-02-03T09:26:47.246Z,70.87
2023-02-03T09:27:46.433Z,65.80
2023-02-03T09:28:46.253Z,61.67
2023-02-03T09:29:46.213Z,70.75
2023-02-03T09:30:46.287Z,70.78
2023-02-03T09:31:46.374Z,68.44
2023-02-03T09:32:46.207Z,71.52
2023-02-03T09:33:46.219Z,66.32
2023-02-03T09:34:46.222Z,69.46
2023-02-03T09:35:46.250Z,67.83
2023-02-03T09:36:46.151Z,71.28
2023-02-03T09:37:46.203Z,72.92
2023-02-03T09:38:46.134Z,67.30
2023-02-03T09:39:46.161Z,70.19
2023-02-03T09:40:46.138Z,69.71
2023-02-03T09:41:46.165Z,68.15
2023-02-03T09:42:46.164Z,68.96
2023-02-03T09:43:46.108Z,70.41
2023-02-03T09:44:46.861Z,73.02
2023-02-03T09:45:46.183Z,71.83
2023-02-03T09:46:46.156Z,73.81
2023-02-03T09:47:46.184Z,71.01
2023-02-03T09:48:46.085Z,71.98
2023-02-03T09:49:46.058Z,74.76
2023-02-03T09:50:46.102Z,69.82
2023-02-03T09:51:46.032Z,70.19
2023-02-03T09:52:46.075Z,68.09
2023-02-03T09:53:46.077Z,71.36
2023-02-03T09:54:46.102Z,68.14
2023-02-03T09:55:46.021Z,67.72
2023-02-03T09:56:45.997Z,66.47
2023-02-03T09:57:46.056Z,67.42
2023-02-03T09:58:45.990Z,70.82
2023-02-03T09:59:46.010Z,69.52
2023-02-03T10:00:46.015Z,70.74
2023-02-03T10:01:45.979Z,67.00
2023-02-03T10:02:46.027Z,66.10
2023-02-03T10:03:45.992Z,69.62
2023-02-03T10:04:45.944Z,70.35
2023-02-03T10:05:45.944Z,70.77
2023-02-03T10:06:45.973Z,65.64
2023-02-03T10:07:45.940Z,70.59
2023-02-03T10:08:46.936Z,70.51
2023-02-03T10:09:45.931Z,71.70
2023-02-03T10:10:45.906Z,65.06
2023-02-03T10:11:45.956Z,70.89
2023-02-03T10:12:45.912Z,59.91
2023-02-03T10:13:45.854Z,66.69
2023-02-03T10:14:46.010Z,69.14
2023-02-03T10:15:45.944Z,69.82
2023-02-03T10:16:45.978Z,66.08
2023-02-03T10:17:45.880Z,71.22
2023-02-03T10:18:45.858Z,67.05
2023-02-03T10:19:45.837Z,70.65
2023-02-03T10:20:45.861Z,68.04
2023-02-03T10:21:46.153Z,70.59
2023-02-03T10:22:45.822Z,65.58
2023-02-03T10:23:45.865Z,74.33
2023-02-03T10:24:46.045Z,69.15
2023-02-03T10:25:45.843Z,69.21
2023-02-03T10:26:45.819Z,65.90
2023-02-03T10:27:45.826Z,71.92
2023-02-03T10:28:45.759Z,71.56
2023-02-03T10:29:45.829Z,66.70
2023-02-03T10:30:46.092Z,66.79
2023-02-03T10:31:45.941Z,68.77
2023-02-03T10:32:45.726Z,70.96
2023-02-03T10:33:45.765Z,69.48
2023-02-03T10:34:46.554Z,68.24
2023-02-03T10:35:45.944Z,67.77
2023-02-03T10:36:45.721Z,67.04
2023-02-03T10:37:45.728Z,70.24
2023-02-03T10:38:45.694Z,69.90
2023-02-03T10:39:45.685Z,67.90
2023-02-03T10:40:45.857Z,67.84
2023-02-03T10:41:45.670Z,67.56
2023-02-03T10:42:45.707Z,70.75
2023-02-03T10:43:45.660Z,72.63
2023-02-03T10:44:45.668Z,71.66
2023-02-03T10:45:45.677Z,69.52
2023-02-03T10:46:45.758Z,70.48
2023-02-03T10:47:45.619Z,67.59
2023-02-03T10:48:45.876Z,70.54
2023-02-03T10:49:46.100Z,61.93
2023-02-03T10:50:45.657Z,69.18
2023-02-03T10:51:45.590Z,67.41
2023-02-03T10:52:45.612Z,73.51
2023-02-03T10:53:46.583Z,67.10
2023-02-03T10:54:45.577Z,68.88
2023-02-03T10:55:45.606Z,70.50
2023-02-03T10:56:45.564Z,69.78
2023-02-03T10:57:45.546Z,67.89
2023-02-03T10:58:45.570Z,69.29
2023-02-03T10:59:45.545Z,72.01
2023-02-03T11:00:45.543Z,72.87
2023-02-03T11:01:45.556Z,68.04
2023-02-03T11:02:45.634Z,68.69
2023-02-03T11:03:45.562Z,68.98
2023-02-03T11:04:45.560Z,64.84
2023-02-03T11:05:45.490Z,67.69
2023-02-03T11:06:45.473Z,74.62
2023-02-03T11:07:45.513Z,71.17
2023-02-03T11:08:45.546Z,72.90
2023-02-03T11:09:45.535Z,68.04
2023-02-03T11:10:45.448Z,68.49
2023-02-03T11:11:45.430Z,69.68
2023-02-03T11:12:46.427Z,67.43
2023-02-03T11:13:45.423Z,72.25
2023-02-03T11:14:45.416Z,70.54
2023-02-03T11:15:45.476Z,71.30
2023-02-03T11:16:45.737Z,69.89
2023-02-03T11:17:45.494Z,70.67
2023-02-03T11:18:45.396Z,69.40
2023-02-03T11:19:45.408Z,67.86
2023-02-03T11:20:45.445Z,72.83
2023-02-03T11:21:45.425Z,74.05
2023-02-03T11:22:45.384Z,70.83
2023-02-03T11:23:45.365Z,69.44
2023-02-03T11:24:46.158Z,67.99
2023-02-03T11:25:45.442Z,67.34
2023-02-03T11:26:45.349Z,69.12
2023-02-03T11:27:45.351Z,69.19
2023-02-03T11:28:45.314Z,68.04
2023-02-03T11:29:45.422Z,67.48
2023-02-03T11:30:45.425Z,63.76
2023-02-03T11:31:45.421Z,68.33
2023-02-03T11:32:45.274Z,71.28
2023-02-03T11:33:45.275Z,67.43
2023-02-03T11:34:45.272Z,71.18
2023-02-03T11:35:45.346Z,69.63
2023-02-03T11:36:45.252Z,70.58
2023-02-03T11:37:45.232Z,67.00
2023-02-03T11:38:45.224Z,71.55
2023-02-03T11:39:45.261Z,71.64
2023-02-03T11:40:45.229Z,68.26
2023-02-03T11:41:45.246Z,70.45
2023-02-03T11:42:45.301Z,69.50
2023-02-03T11:43:45.271Z,71.74
2023-02-03T11:44:45.263Z,67.09
2023-02-03T11:45:45.199Z,71.39
2023-02-03T11:46:45.223Z,66.44
2023-02-03T11:47:45.228Z,66.47
2023-02-03T11:48:45.176Z,70.29
2023-02-03T11:49:45.127Z,66.17
2023-02-03T11:50:45.153Z,71.17
2023-02-03T11:51:45.152Z,70.23
2023-02-03T11:52:45.124Z,70.92
2023-02-03T11:53:56.653Z,71.29
2023-02-03T11:54:47.113Z,74.10
2023-02-03T11:55:45.080Z,69.65
2023-02-03T11:56:45.108Z,68.15
2023-02-03T11:57:45.061Z,69.33
2023-02-03T11:58:45.078Z,67.49
2023-02-03T11:59:45.055Z,65.05
2023-02-03T12:00:45.038Z,70.56
2023-02-03T12:01:45.081Z,71.37
2023-02-03T12:02:45.131Z,64.76
2023-02-03T12:03:45.079Z,70.36
2023-02-03T12:04:45.098Z,68.84
2023-02-03T12:05:45.032Z,64.53
2023-02-03T12:06:45.016Z,69.72
2023-02-03T12:07:45.089Z,70.16
2023-02-03T12:08:45.027Z,71.35
2023-02-03T12:09:45.010Z,66.88
2023-02-03T12:10:45.068Z,71.67
2023-02-03T12:11:45.007Z,72.90
2023-02-03T12:12:44.989Z,73.44
2023-02-03T12:13:45.016Z,72.11
2023-02-03T12:15:16.907Z,72.66
2023-02-03T12:15:45.017Z,69.59
2023-02-03T12:16:44.928Z,70.37
2023-02-03T12:17:44.984Z,70.78
2023-02-03T12:18:44.915Z,66.12
2023-02-03T12:19:44.931Z,71.13
2023-02-03T12:20:44.926Z,65.87
2023-02-03T12:21:44.941Z,72.49
2023-02-03T12:22:44.877Z,69.06
2023-02-03T12:23:44.897Z,73.22
2023-02-03T12:24:44.884Z,74.10
2023-02-03T12:25:44.888Z,74.14
2023-02-03T12:26:45.869Z,66.93
2023-02-03T12:27:44.945Z,66.38
2023-02-03T12:28:44.964Z,68.90
2023-02-03T12:29:44.881Z,70.89
2023-02-03T12:30:44.869Z,72.55
2023-02-03T12:31:44.893Z,68.48
2023-02-03T12:32:45.716Z,66.79
2023-02-03T12:33:44.828Z,71.27
2023-02-03T12:34:44.831Z,68.99
2023-02-03T12:35:44.872Z,72.03
2023-02-03T12:36:45.394Z,73.41
2023-02-03T12:37:44.782Z,73.86
2023-02-03T12:38:44.764Z,74.28
2023-02-03T12:39:44.847Z,75.26
2023-02-03T12:40:44.740Z,67.16
2023-02-03T12:41:44.749Z,71.90
2023-02-03T12:42:44.731Z,69.86
2023-02-03T12:43:44.723Z,72.25
2023-02-03T12:44:44.749Z,74.09
2023-02-03T12:45:44.788Z,71.07
2023-02-03T12:46:44.712Z,71.07
2023-02-03T12:47:44.709Z,73.62
2023-02-03T12:48:44.690Z,67.24
2023-02-03T12:49:44.692Z,74.06
2023-02-03T12:50:44.700Z,74.99
2023-02-03T12:51:44.695Z,74.55
2023-02-03T12:52:44.670Z,56.61
2023-02-03T12:53:44.641Z,71.25
2023-02-03T12:54:44.704Z,71.10
2023-02-03T12:55:44.622Z,65.82
2023-02-03T12:56:44.622Z,73.88
2023-02-03T12:57:44.688Z,68.04
2023-02-03T12:58:44.653Z,71.89
2023-02-03T12:59:44.594Z,70.68
2023-02-03T13:00:44.612Z,70.85
2023-02-03T13:01:44.632Z,69.35
2023-02-03T13:02:44.625Z,72.22
2023-02-03T13:03:44.609Z,68.58
2023-02-03T13:04:44.626Z,73.29
2023-02-03T13:05:44.634Z,66.45
2023-02-03T13:06:44.543Z,72.85
2023-02-03T13:07:44.570Z,71.65
2023-02-03T13:08:44.510Z,72.00
2023-02-03T13:09:44.559Z,70.89
2023-02-03T13:10:44.507Z,72.74